TimeCDT,TemperatureF,Dew PointF,Humidity,Sea Level PressureIn,VisibilityMPH,Wind Direction,Wind SpeedMPH,Gust SpeedMPH,PrecipitationIn,Events,Conditions,WindDirDegrees,DateUTC
12:54 AM,73.9,71.1,91,30.01,8.0,Calm,Calm,-,N/A,,Clear,0,2013-07-29 05:54:00
1:54 AM,72.0,70.0,93,30.02,8.0,Calm,Calm,-,N/A,,Clear,0,2013-07-29 06:54:00
2:54 AM,72.0,70.0,93,30.02,4.0,Calm,Calm,-,N/A,,Clear,0,2013-07-29 07:54:00
3:54 AM,73.0,70.0,90,30.03,9.0,Calm,Calm,-,N/A,,Clear,0,2013-07-29 08:54:00
4:54 AM,73.0,71.1,93,30.05,8.0,Calm,Calm,-,N/A,,Clear,0,2013-07-29 09:54:00
5:54 AM,72.0,69.1,91,30.06,8.0,Calm,Calm,-,0.01,,Clear,0,2013-07-29 10:54:00
6:54 AM,73.0,70.0,90,30.08,8.0,Calm,Calm,-,N/A,,Clear,0,2013-07-29 11:54:00
7:54 AM,75.9,70.0,82,30.10,10.0,Calm,Calm,-,N/A,,Clear,0,2013-07-29 12:54:00
8:54 AM,80.1,71.1,74,30.11,10.0,NE,4.6,-,N/A,,Clear,40,2013-07-29 13:54:00
9:54 AM,82.9,71.1,67,30.12,10.0,SSE,3.5,-,N/A,,Clear,150,2013-07-29 14:54:00
10:54 AM,87.1,70.0,57,30.12,10.0,Calm,Calm,-,N/A,,Clear,0,2013-07-29 15:54:00
11:54 AM,88.0,70.0,55,30.10,10.0,Calm,Calm,-,N/A,,Partly Cloudy,0,2013-07-29 16:54:00
12:54 PM,89.1,70.0,53,30.09,10.0,East,6.9,-,N/A,,Partly Cloudy,80,2013-07-29 17:54:00
1:54 PM,91.0,68.0,47,30.09,10.0,Calm,Calm,-,N/A,,Partly Cloudy,0,2013-07-29 18:54:00
2:54 PM,91.0,66.9,45,30.08,10.0,Variable,3.5,-,N/A,,Partly Cloudy,0,2013-07-29 19:54:00
3:54 PM,91.0,68.0,47,30.07,10.0,Variable,3.5,-,N/A,,Partly Cloudy,0,2013-07-29 20:54:00
4:54 PM,91.0,69.1,48,30.07,10.0,East,5.8,-,N/A,,Partly Cloudy,90,2013-07-29 21:54:00
5:54 PM,91.9,66.9,44,30.06,10.0,ESE,4.6,-,N/A,,Partly Cloudy,120,2013-07-29 22:54:00
6:54 PM,89.1,71.1,55,30.07,10.0,ESE,5.8,-,N/A,,Partly Cloudy,110,2013-07-29 23:54:00
7:54 PM,84.9,73.0,67,30.06,10.0,East,3.5,-,N/A,,Clear,90,2013-07-30 00:54:00
8:54 PM,81.0,73.0,77,30.07,10.0,East,4.6,-,N/A,,Clear,100,2013-07-30 01:54:00
9:54 PM,81.0,73.0,77,30.09,10.0,ESE,5.8,-,N/A,,Clear,110,2013-07-30 02:54:00
10:54 PM,80.1,72.0,76,30.10,10.0,ESE,5.8,-,N/A,,Clear,120,2013-07-30 03:54:00
11:54 PM,79.0,72.0,79,30.11,10.0,SE,5.8,-,N/A,,Clear,140,2013-07-30 04:54:00